Time;durP1;ratioP1;P1;durP2;ratioP2;P2;SDS_P1;SDS_P2;PMS_P1;PMS_P2;Temp;Humidity;BMP_temperature;BMP_pressure;BME280_temperature;BME280_humidity;BME280_pressure;Samples;Min_cycle;Max_cycle;Signal;HPM_P1;HPM_P2
2022/06/06 00:00:22;;;;;;;4.65;2.67;;;;;;;;;;5102735;28;20026;-63
2022/06/06 00:03:07;;;;;;;2.72;2.25;;;;;;;;;;5095463;28;20190;-61
2022/06/06 00:05:53;;;;;;;2.88;2.00;;;;;;;;;;5100919;28;20107;-62
2022/06/06 00:08:39;;;;;;;8.77;2.42;;;;;;;;;;5104719;28;20050;-62
2022/06/06 00:11:25;;;;;;;4.30;2.75;;;;;;;;;;5104525;28;20382;-63
2022/06/06 00:14:12;;;;;;;6.13;2.20;;;;;;;;;;5109555;28;20085;-63
2022/06/06 00:16:58;;;;;;;5.20;2.50;;;;;;;;;;5126805;27;20020;-63
2022/06/06 00:19:43;;;;;;;6.80;2.30;;;;;;;;;;5107242;28;20019;-66
2022/06/06 00:22:29;;;;;;;5.82;2.83;;;;;;;;;;5101483;28;20036;-61
2022/06/06 00:25:14;;;;;;;6.10;2.60;;;;;;;;;;5103411;28;20016;-61
2022/06/06 00:28:00;;;;;;;5.15;2.55;;;;;;;;;;5101843;28;20074;-63
2022/06/06 00:30:45;;;;;;;5.20;2.58;;;;;;;;;;5104886;28;20090;-62
2022/06/06 00:36:36;;;;;;;6.75;2.70;;;;;;;;;;5099161;28;20027;-64
2022/06/06 00:39:21;;;;;;;10.52;2.60;;;;;;;;;;5081848;28;20035;-66
2022/06/06 00:42:18;;;;;;;7.63;2.40;;;;;;;;;;5099720;28;20401;-69
2022/06/06 00:45:21;;;;;;;6.80;2.55;;;;;;;;;;5103590;28;20099;-66
2022/06/06 00:48:14;;;;;;;5.60;2.30;;;;;;;;;;5091788;28;20502;-66
2022/06/06 00:50:59;;;;;;;4.72;2.20;;;;;;;;;;5117401;28;20016;-64
2022/06/06 00:53:52;;;;;;;3.85;2.13;;;;;;;;;;5091682;28;20042;-66
2022/06/06 00:56:41;;;;;;;5.32;2.60;;;;;;;;;;5105118;28;20458;-64
2022/06/06 00:59:29;;;;;;;4.32;2.13;;;;;;;;;;5096120;28;20091;-65
2022/06/06 01:02:15;;;;;;;4.47;2.40;;;;;;;;;;5096100;28;20032;-64
2022/06/06 01:05:02;;;;;;;3.25;2.50;;;;;;;;;;5103700;28;20019;-64
2022/06/06 01:07:48;;;;;;;8.13;3.20;;;;;;;;;;5106020;28;20064;-63
2022/06/06 01:10:34;;;;;;;5.05;2.42;;;;;;;;;;5093483;28;20028;-64
2022/06/06 01:13:22;;;;;;;4.57;2.65;;;;;;;;;;5098900;28;20024;-63
2022/06/06 01:16:23;;;;;;;3.97;2.40;;;;;;;;;;5113524;27;20031;-63
2022/06/06 01:19:22;;;;;;;5.18;2.33;;;;;;;;;;5101723;28;20386;-63
2022/06/06 01:22:07;;;;;;;8.47;3.93;;;;;;;;;;5105195;28;20094;-62
2022/06/06 01:25:03;;;;;;;4.97;2.45;;;;;;;;;;5109447;28;20401;-62
2022/06/06 01:28:18;;;;;;;5.00;2.47;;;;;;;;;;5101180;28;20030;-63
2022/06/06 01:31:07;;;;;;;4.68;2.20;;;;;;;;;;5048103;28;20043;-62
2022/06/06 01:33:54;;;;;;;3.67;2.83;;;;;;;;;;5102863;28;20027;-76
2022/06/06 01:36:40;;;;;;;3.78;2.25;;;;;;;;;;5110811;28;20752;-63
2022/06/06 01:39:27;;;;;;;4.60;2.33;;;;;;;;;;5096540;28;20459;-63
2022/06/06 01:42:34;;;;;;;3.85;2.45;;;;;;;;;;5100275;28;20067;-63
2022/06/06 01:45:26;;;;;;;2.78;2.33;;;;;;;;;;5116043;27;20045;-63
2022/06/06 01:48:14;;;;;;;7.18;2.47;;;;;;;;;;5109922;27;20521;-63
2022/06/06 01:51:07;;;;;;;3.92;2.45;;;;;;;;;;5081550;28;20107;-72
2022/06/06 01:53:52;;;;;;;5.15;2.25;;;;;;;;;;5086697;28;20027;-66
2022/06/06 01:56:41;;;;;;;6.60;2.63;;;;;;;;;;5092678;28;20035;-66
2022/06/06 01:59:27;;;;;;;4.90;2.80;;;;;;;;;;5092384;28;20074;-65
2022/06/06 02:02:12;;;;;;;3.72;2.58;;;;;;;;;;5082353;28;20475;-66
2022/06/06 02:04:58;;;;;;;6.03;2.60;;;;;;;;;;5086808;28;20009;-67
2022/06/06 02:07:43;;;;;;;3.05;2.72;;;;;;;;;;5083113;28;20429;-66
2022/06/06 02:10:29;;;;;;;3.65;2.45;;;;;;;;;;5092527;28;20077;-63
2022/06/06 02:13:15;;;;;;;3.95;2.75;;;;;;;;;;5074102;28;20016;-64
2022/06/06 02:16:02;;;;;;;4.80;2.45;;;;;;;;;;5086166;28;20359;-65
2022/06/06 02:18:48;;;;;;;3.63;2.70;;;;;;;;;;5090025;28;20023;-65
2022/06/06 02:21:33;;;;;;;5.25;3.38;;;;;;;;;;5074336;28;20055;-65
2022/06/06 02:24:19;;;;;;;7.95;3.22;;;;;;;;;;5081010;28;20031;-65
2022/06/06 02:27:05;;;;;;;3.28;2.53;;;;;;;;;;5094967;28;20451;-67
2022/06/06 02:29:50;;;;;;;7.20;2.63;;;;;;;;;;5084054;28;20030;-63
2022/06/06 02:32:36;;;;;;;8.55;2.80;;;;;;;;;;5079792;28;20024;-64
2022/06/06 02:35:23;;;;;;;4.53;2.55;;;;;;;;;;5073695;28;20051;-63
2022/06/06 02:38:10;;;;;;;2.95;2.40;;;;;;;;;;5092116;28;20241;-63
2022/06/06 02:41:07;;;;;;;4.18;2.88;;;;;;;;;;5076487;28;20639;-67
2022/06/06 02:43:53;;;;;;;6.18;2.72;;;;;;;;;;5080680;28;20109;-64
2022/06/06 02:46:38;;;;;;;3.97;2.47;;;;;;;;;;5075670;28;20032;-71
2022/06/06 02:49:24;;;;;;;7.53;2.90;;;;;;;;;;5088621;28;20468;-75
2022/06/06 02:52:10;;;;;;;3.13;2.70;;;;;;;;;;5099708;28;20058;-75
2022/06/06 02:54:55;;;;;;;4.53;2.40;;;;;;;;;;5101040;28;20374;-75
2022/06/06 02:57:42;;;;;;;4.75;2.70;;;;;;;;;;5111324;28;20037;-75
2022/06/06 03:00:29;;;;;;;8.88;3.60;;;;;;;;;;5109297;28;20027;-77
2022/06/06 03:03:15;;;;;;;7.60;2.55;;;;;;;;;;5100903;28;20035;-71
2022/06/06 03:06:20;;;;;;;5.45;3.30;;;;;;;;;;5108560;28;20024;-66
2022/06/06 03:09:06;;;;;;;5.40;2.80;;;;;;;;;;5110189;28;20028;-64
2022/06/06 03:11:52;;;;;;;4.57;2.90;;;;;;;;;;5106970;28;20066;-62
2022/06/06 03:14:43;;;;;;;3.50;2.55;;;;;;;;;;5099944;28;20026;-63
2022/06/06 03:21:01;;;;;;;4.20;2.47;;;;;;;;;;5102413;28;20103;-64
2022/06/06 03:24:05;;;;;;;5.35;2.97;;;;;;;;;;5101166;28;20028;-74
2022/06/06 03:26:53;;;;;;;3.92;3.03;;;;;;;;;;5102224;28;20058;-66
2022/06/06 03:30:14;;;;;;;10.82;2.85;;;;;;;;;;5118667;28;20286;-65
2022/06/06 03:33:11;;;;;;;10.27;3.15;;;;;;;;;;5022021;28;20397;-65
2022/06/06 03:36:01;;;;;;;4.85;2.60;;;;;;;;;;5098711;28;20058;-65
2022/06/06 03:38:46;;;;;;;3.25;2.83;;;;;;;;;;5111891;28;20497;-65
2022/06/06 03:41:35;;;;;;;4.95;3.03;;;;;;;;;;5109587;28;20031;-63
2022/06/06 03:44:20;;;;;;;4.05;2.83;;;;;;;;;;5105239;28;20036;-73
2022/06/06 03:47:26;;;;;;;5.15;3.08;;;;;;;;;;5104583;28;20042;-74
2022/06/06 03:50:17;;;;;;;4.57;2.40;;;;;;;;;;5104345;28;20398;-73
2022/06/06 03:53:12;;;;;;;7.90;2.88;;;;;;;;;;5097107;28;20031;-75
2022/06/06 03:56:01;;;;;;;4.78;2.90;;;;;;;;;;5095183;28;20024;-74
2022/06/06 03:58:46;;;;;;;4.45;2.58;;;;;;;;;;5111435;28;20499;-71
2022/06/06 04:01:34;;;;;;;8.38;3.13;;;;;;;;;;5109520;28;20032;-72
2022/06/06 04:04:21;;;;;;;8.85;3.60;;;;;;;;;;5095183;28;20478;-61
2022/06/06 04:07:06;;;;;;;4.25;2.92;;;;;;;;;;5109592;28;20014;-63
2022/06/06 04:09:52;;;;;;;3.88;2.95;;;;;;;;;;5105292;28;20459;-63
2022/06/06 04:12:38;;;;;;;5.03;2.90;;;;;;;;;;5083843;28;20023;-63
2022/06/06 04:15:42;;;;;;;7.75;2.92;;;;;;;;;;5111406;28;20375;-63
2022/06/06 04:18:46;;;;;;;6.20;3.00;;;;;;;;;;5107793;28;20060;-65
2022/06/06 04:21:38;;;;;;;3.40;3.08;;;;;;;;;;5099571;28;20034;-72
2022/06/06 04:24:29;;;;;;;4.97;3.38;;;;;;;;;;5101477;28;20034;-73
2022/06/06 04:27:21;;;;;;;4.50;2.97;;;;;;;;;;5101003;28;20031;-72
2022/06/06 04:30:17;;;;;;;6.93;3.25;;;;;;;;;;5079211;28;20016;-71
2022/06/06 04:33:05;;;;;;;4.43;3.10;;;;;;;;;;5103465;28;20043;-72
2022/06/06 04:36:26;;;;;;;5.22;2.80;;;;;;;;;;5104392;28;20420;-71
2022/06/06 04:39:14;;;;;;;3.80;2.80;;;;;;;;;;5020273;28;20491;-72
2022/06/06 04:42:08;;;;;;;5.93;3.40;;;;;;;;;;5110861;28;20173;-69
2022/06/06 04:44:53;;;;;;;5.60;3.13;;;;;;;;;;5096797;28;20022;-69
2022/06/06 04:47:40;;;;;;;5.70;3.67;;;;;;;;;;5095239;28;20032;-69
2022/06/06 04:50:26;;;;;;;3.47;3.15;;;;;;;;;;5107571;28;20382;-69
2022/06/06 04:53:15;;;;;;;5.53;2.50;;;;;;;;;;5113128;28;20100;-69
2022/06/06 04:56:01;;;;;;;4.90;3.55;;;;;;;;;;5098017;28;20028;-73
2022/06/06 04:58:48;;;;;;;6.85;2.90;;;;;;;;;;5112682;28;20035;-70
2022/06/06 05:01:33;;;;;;;7.97;3.13;;;;;;;;;;5089676;28;20032;-71
2022/06/06 05:04:19;;;;;;;4.60;2.70;;;;;;;;;;5099378;28;20513;-70
2022/06/06 05:07:22;;;;;;;5.40;3.22;;;;;;;;;;5117229;28;20023;-71
2022/06/06 05:10:11;;;;;;;5.95;3.00;;;;;;;;;;5107436;28;20035;-72
2022/06/06 05:13:18;;;;;;;5.88;3.08;;;;;;;;;;5104219;28;20098;-72
2022/06/06 05:16:03;;;;;;;7.13;3.33;;;;;;;;;;5113473;28;20059;-65
2022/06/06 05:18:59;;;;;;;10.13;2.88;;;;;;;;;;5104609;28;20495;-67
2022/06/06 05:21:52;;;;;;;5.32;3.85;;;;;;;;;;5105596;28;20027;-65
2022/06/06 05:24:49;;;;;;;4.80;3.05;;;;;;;;;;5102300;28;20019;-66
2022/06/06 05:27:54;;;;;;;7.45;3.40;;;;;;;;;;5106074;28;20029;-66
2022/06/06 05:31:12;;;;;;;4.13;3.25;;;;;;;;;;5109290;28;20437;-65
2022/06/06 05:34:05;;;;;;;6.20;3.40;;;;;;;;;;5079468;28;20103;-65
2022/06/06 05:37:03;;;;;;;5.07;3.08;;;;;;;;;;5113966;28;20092;-66
2022/06/06 05:39:49;;;;;;;5.50;3.20;;;;;;;;;;5109601;28;20019;-64
2022/06/06 05:42:43;;;;;;;4.93;2.95;;;;;;;;;;5109850;28;20478;-64
2022/06/06 05:45:29;;;;;;;7.47;3.83;;;;;;;;;;5099164;28;20015;-64
2022/06/06 05:48:30;;;;;;;9.68;3.35;;;;;;;;;;5101666;28;20150;-65
2022/06/06 05:51:34;;;;;;;3.58;2.97;;;;;;;;;;5097792;28;20107;-69
2022/06/06 05:54:23;;;;;;;3.80;2.88;;;;;;;;;;5103413;28;20045;-71
2022/06/06 05:57:27;;;;;;;3.90;3.20;;;;;;;;;;5111388;28;20033;-71
2022/06/06 06:00:16;;;;;;;11.15;3.60;;;;;;;;;;5110078;28;20011;-71
2022/06/06 06:03:12;;;;;;;3.72;3.08;;;;;;;;;;5106603;28;20031;-73
2022/06/06 06:06:00;;;;;;;4.85;3.33;;;;;;;;;;5106272;28;20035;-73
2022/06/06 06:08:45;;;;;;;6.05;3.35;;;;;;;;;;5107287;28;20026;-63
2022/06/06 06:11:48;;;;;;;5.45;2.88;;;;;;;;;;5115314;28;20482;-64
2022/06/06 06:14:57;;;;;;;4.78;3.20;;;;;;;;;;5102136;28;20028;-64
2022/06/06 06:17:42;;;;;;;5.15;3.40;;;;;;;;;;5110466;27;20019;-64
2022/06/06 06:20:30;;;;;;;4.72;3.15;;;;;;;;;;5099996;28;20952;-64
2022/06/06 06:23:20;;;;;;;4.53;2.88;;;;;;;;;;5096429;28;20028;-64
2022/06/06 06:26:06;;;;;;;6.18;3.47;;;;;;;;;;5112155;28;20019;-63
2022/06/06 06:28:52;;;;;;;5.32;3.17;;;;;;;;;;5105384;28;20034;-65
2022/06/06 06:31:57;;;;;;;6.15;3.75;;;;;;;;;;5102867;28;20024;-63
2022/06/06 06:34:48;;;;;;;6.22;2.85;;;;;;;;;;5111712;28;20051;-64
2022/06/06 06:37:52;;;;;;;5.60;3.45;;;;;;;;;;5103922;28;20493;-64
2022/06/06 06:40:59;;;;;;;9.27;3.53;;;;;;;;;;5110871;28;20211;-65
2022/06/06 06:43:52;;;;;;;4.20;3.53;;;;;;;;;;5096852;28;20024;-68
2022/06/06 06:46:46;;;;;;;7.72;3.65;;;;;;;;;;5110160;28;20016;-63
2022/06/06 06:49:39;;;;;;;4.43;3.20;;;;;;;;;;5101789;28;20086;-76
2022/06/06 06:52:25;;;;;;;5.18;3.03;;;;;;;;;;5107595;28;20077;-73
2022/06/06 06:55:37;;;;;;;5.85;3.50;;;;;;;;;;5109593;28;20099;-73
2022/06/06 06:58:24;;;;;;;5.78;3.28;;;;;;;;;;5109393;27;20487;-72
2022/06/06 07:01:15;;;;;;;4.13;3.25;;;;;;;;;;5111921;28;20016;-72
2022/06/06 07:11:12;;;;;;;4.50;3.40;;;;;;;;;;5107266;27;20027;-64
2022/06/06 07:14:16;;;;;;;3.33;2.97;;;;;;;;;;5084268;28;20062;-64
2022/06/06 07:17:02;;;;;;;4.65;3.20;;;;;;;;;;5102686;28;20023;-65
2022/06/06 07:19:50;;;;;;;5.93;3.15;;;;;;;;;;5099727;27;20035;-66
2022/06/06 07:22:59;;;;;;;7.90;4.88;;;;;;;;;;5116824;27;20092;-63
2022/06/06 07:25:46;;;;;;;4.43;2.90;;;;;;;;;;5093472;28;20012;-73
2022/06/06 07:28:31;;;;;;;4.03;3.00;;;;;;;;;;5104811;27;20356;-71
2022/06/06 07:31:35;;;;;;;6.50;3.45;;;;;;;;;;5093848;28;20019;-73
2022/06/06 07:34:33;;;;;;;6.43;3.15;;;;;;;;;;5101496;28;20020;-71
2022/06/06 07:37:34;;;;;;;3.58;2.97;;;;;;;;;;5106436;28;20136;-72
2022/06/06 07:40:23;;;;;;;8.02;3.08;;;;;;;;;;5095810;28;20016;-71
2022/06/06 07:43:22;;;;;;;6.30;3.20;;;;;;;;;;5093984;28;20036;-70
2022/06/06 07:46:28;;;;;;;7.30;3.20;;;;;;;;;;5109722;28;20054;-70
2022/06/06 07:49:19;;;;;;;6.82;3.25;;;;;;;;;;5105479;28;20130;-71
2022/06/06 07:52:13;;;;;;;4.00;2.70;;;;;;;;;;5098639;28;20184;-71
2022/06/06 07:55:11;;;;;;;6.70;3.03;;;;;;;;;;5099367;28;20028;-70
2022/06/06 07:57:56;;;;;;;6.45;2.67;;;;;;;;;;5091724;28;20367;-72
2022/06/06 08:00:45;;;;;;;6.20;2.80;;;;;;;;;;5091913;28;20123;-66
2022/06/06 08:03:43;;;;;;;5.72;2.83;;;;;;;;;;5102238;28;20024;-65
2022/06/06 08:06:37;;;;;;;7.43;2.67;;;;;;;;;;5097915;28;20102;-66
2022/06/06 08:09:41;;;;;;;9.52;3.03;;;;;;;;;;5091945;28;20031;-68
2022/06/06 08:12:37;;;;;;;3.05;2.50;;;;;;;;;;5105601;28;20023;-66
2022/06/06 08:15:45;;;;;;;5.18;2.83;;;;;;;;;;5112249;28;20102;-65
2022/06/06 08:18:34;;;;;;;7.97;2.70;;;;;;;;;;5101043;28;20009;-66
2022/06/06 08:21:19;;;;;;;2.87;2.37;;;;;;;;;;5098460;28;20057;-66
2022/06/06 08:24:07;;;;;;;5.35;2.97;;;;;;;;;;5111174;28;20265;-65
2022/06/06 08:26:54;;;;;;;3.63;2.10;;;;;;;;;;5102152;28;20384;-66
2022/06/06 08:29:40;;;;;;;5.10;2.85;;;;;;;;;;5102566;28;20030;-67
2022/06/06 08:32:27;;;;;;;4.78;2.50;;;;;;;;;;5111198;28;20019;-66
2022/06/06 08:35:13;;;;;;;6.75;3.10;;;;;;;;;;5093049;28;20402;-64
2022/06/06 08:37:59;;;;;;;4.85;2.63;;;;;;;;;;5097667;28;20030;-65
2022/06/06 08:40:44;;;;;;;3.83;2.50;;;;;;;;;;5104564;28;20073;-65
2022/06/06 08:43:53;;;;;;;6.03;2.47;;;;;;;;;;5103307;28;20102;-64
2022/06/06 08:46:41;;;;;;;2.95;2.10;;;;;;;;;;5109867;28;20210;-63
2022/06/06 08:52:52;;;;;;;3.30;2.17;;;;;;;;;;5102886;28;20023;-63
2022/06/06 08:55:37;;;;;;;5.43;2.10;;;;;;;;;;5096891;28;20024;-65
2022/06/06 08:58:49;;;;;;;5.13;2.17;;;;;;;;;;5108438;28;20482;-64
2022/06/06 09:02:01;;;;;;;3.33;2.25;;;;;;;;;;5089197;28;20407;-64
2022/06/06 09:05:01;;;;;;;2.25;1.60;;;;;;;;;;5106356;28;20552;-64
2022/06/06 09:08:07;;;;;;;2.20;1.70;;;;;;;;;;5108810;28;20513;-62
2022/06/06 09:11:01;;;;;;;3.70;2.13;;;;;;;;;;5094452;28;20094;-62
2022/06/06 09:13:47;;;;;;;5.22;2.10;;;;;;;;;;5092494;28;20445;-64
2022/06/06 09:16:35;;;;;;;4.70;1.88;;;;;;;;;;5097598;28;20040;-63
2022/06/06 09:19:40;;;;;;;4.57;2.28;;;;;;;;;;5106859;28;20161;-63
2022/06/06 09:22:44;;;;;;;6.43;2.42;;;;;;;;;;5097009;28;20055;-63
2022/06/06 09:25:48;;;;;;;1.77;1.67;;;;;;;;;;5104682;28;20419;-63
2022/06/06 09:28:57;;;;;;;3.17;1.98;;;;;;;;;;5108324;28;20069;-65
2022/06/06 09:31:48;;;;;;;4.45;1.85;;;;;;;;;;5100902;28;20031;-65
2022/06/06 09:34:46;;;;;;;3.03;1.65;;;;;;;;;;5112784;28;20078;-64
2022/06/06 09:37:40;;;;;;;6.25;3.35;;;;;;;;;;5104570;28;20046;-60
2022/06/06 09:40:42;;;;;;;5.15;2.58;;;;;;;;;;5111570;28;20519;-61
2022/06/06 09:43:42;;;;;;;10.95;4.47;;;;;;;;;;5108437;28;20040;-60
2022/06/06 09:46:37;;;;;;;6.28;3.00;;;;;;;;;;5105216;27;20023;-60
2022/06/06 09:49:41;;;;;;;4.03;2.28;;;;;;;;;;5108927;28;20044;-59
2022/06/06 09:52:26;;;;;;;7.75;3.60;;;;;;;;;;5096566;28;20028;-67
2022/06/06 10:01:45;;;;;;;3.42;2.50;;;;;;;;;;5106720;28;20031;-67
2022/06/06 10:04:49;;;;;;;6.15;2.45;;;;;;;;;;5104601;27;20051;-67
2022/06/06 10:07:35;;;;;;;3.60;1.77;;;;;;;;;;5096628;28;20047;-75
2022/06/06 10:10:23;;;;;;;7.93;3.10;;;;;;;;;;5097242;28;20046;-80
2022/06/06 10:13:09;;;;;;;3.63;1.75;;;;;;;;;;5103317;28;20498;-74
2022/06/06 10:15:58;;;;;;;3.85;2.30;;;;;;;;;;5107680;27;20031;-77
2022/06/06 10:18:55;;;;;;;4.88;2.20;;;;;;;;;;5109256;28;20016;-78
2022/06/06 10:21:44;;;;;;;2.72;1.98;;;;;;;;;;5103656;27;20050;-76
2022/06/06 10:24:48;;;;;;;4.40;2.47;;;;;;;;;;5113723;28;20036;-74
2022/06/06 10:27:39;;;;;;;7.85;3.13;;;;;;;;;;5107250;28;20114;-64
2022/06/06 10:30:45;;;;;;;7.95;3.00;;;;;;;;;;5106584;28;20044;-65
2022/06/06 10:33:49;;;;;;;3.65;2.25;;;;;;;;;;5102758;28;20047;-64
2022/06/06 10:36:54;;;;;;;4.35;2.10;;;;;;;;;;5106113;28;20045;-65
2022/06/06 10:39:45;;;;;;;6.88;2.38;;;;;;;;;;5108734;28;20063;-61
2022/06/06 10:42:32;;;;;;;6.75;2.58;;;;;;;;;;5102477;28;20023;-65
2022/06/06 10:45:37;;;;;;;6.03;2.20;;;;;;;;;;5087934;28;20162;-65
2022/06/06 10:48:22;;;;;;;4.47;2.10;;;;;;;;;;5108218;28;20441;-68
2022/06/06 10:51:37;;;;;;;4.07;2.20;;;;;;;;;;5104204;28;20030;-67
2022/06/06 10:54:31;;;;;;;3.05;1.73;;;;;;;;;;5104135;27;20028;-68
2022/06/06 10:57:32;;;;;;;4.53;2.13;;;;;;;;;;5105554;28;20294;-65
2022/06/06 11:00:24;;;;;;;5.22;2.20;;;;;;;;;;5109635;28;20051;-64
2022/06/06 11:03:18;;;;;;;17.10;4.75;;;;;;;;;;5104200;28;20352;-64
2022/06/06 11:06:16;;;;;;;10.73;4.32;;;;;;;;;;5097505;28;20032;-63
2022/06/06 11:09:09;;;;;;;2.92;1.85;;;;;;;;;;5090597;28;20036;-65
2022/06/06 11:12:13;;;;;;;9.75;4.28;;;;;;;;;;5093560;28;20030;-65
2022/06/06 11:15:01;;;;;;;11.07;3.25;;;;;;;;;;5091842;28;20027;-65
2022/06/06 11:17:46;;;;;;;10.07;2.85;;;;;;;;;;5091365;27;20008;-67
2022/06/06 11:20:35;;;;;;;14.38;7.45;;;;;;;;;;5092112;28;20032;-68
2022/06/06 11:23:23;;;;;;;4.78;3.05;;;;;;;;;;5092666;28;20032;-68
2022/06/06 11:26:18;;;;;;;10.15;3.58;;;;;;;;;;5092152;28;20099;-61
2022/06/06 11:29:24;;;;;;;4.72;2.53;;;;;;;;;;5102087;28;20020;-62
2022/06/06 11:32:15;;;;;;;10.32;2.97;;;;;;;;;;5092336;28;20028;-62
2022/06/06 11:35:01;;;;;;;4.45;2.08;;;;;;;;;;5093066;28;20012;-61
2022/06/06 11:37:48;;;;;;;4.47;2.58;;;;;;;;;;5100494;28;20027;-60
2022/06/06 11:40:48;;;;;;;4.15;2.42;;;;;;;;;;5099911;28;20016;-62
2022/06/06 11:43:52;;;;;;;3.38;1.90;;;;;;;;;;5102702;28;20115;-66
2022/06/06 11:46:49;;;;;;;2.80;1.65;;;;;;;;;;5105940;28;20074;-64
2022/06/06 11:49:48;;;;;;;7.78;2.60;;;;;;;;;;5078620;28;20062;-61
2022/06/06 11:53:01;;;;;;;3.25;1.98;;;;;;;;;;5100278;28;20016;-64
2022/06/06 11:55:46;;;;;;;4.55;2.30;;;;;;;;;;5093269;28;20113;-65
2022/06/06 11:58:44;;;;;;;4.45;2.85;;;;;;;;;;5103246;27;20024;-62
2022/06/06 12:01:43;;;;;;;5.07;2.53;;;;;;;;;;5102628;28;20032;-66
2022/06/06 12:04:34;;;;;;;5.13;3.00;;;;;;;;;;5100461;28;20035;-65
2022/06/06 12:07:55;;;;;;;4.65;2.28;;;;;;;;;;5101807;28;20024;-65
2022/06/06 12:10:53;;;;;;;6.15;2.33;;;;;;;;;;5039512;28;20391;-66
2022/06/06 12:13:47;;;;;;;2.97;1.95;;;;;;;;;;5101584;28;20478;-65
2022/06/06 12:16:33;;;;;;;5.47;2.13;;;;;;;;;;5103450;28;20402;-58
2022/06/06 12:19:39;;;;;;;4.47;2.28;;;;;;;;;;5105383;28;20462;-60
2022/06/06 12:22:37;;;;;;;5.03;2.38;;;;;;;;;;5107879;28;20036;-62
2022/06/06 12:25:41;;;;;;;6.32;2.65;;;;;;;;;;5101326;28;20112;-61
2022/06/06 12:28:40;;;;;;;3.50;2.50;;;;;;;;;;5094154;28;20051;-59
2022/06/06 12:31:26;;;;;;;3.70;2.05;;;;;;;;;;5097981;28;20032;-60
2022/06/06 12:34:12;;;;;;;3.65;1.92;;;;;;;;;;5114707;28;20034;-59
2022/06/06 12:37:00;;;;;;;2.78;1.83;;;;;;;;;;5103065;28;20024;-62
2022/06/06 12:40:03;;;;;;;3.55;2.28;;;;;;;;;;5098827;28;20016;-60
2022/06/06 12:42:48;;;;;;;2.10;1.73;;;;;;;;;;5093506;28;20081;-57
2022/06/06 12:45:52;;;;;;;2.40;1.77;;;;;;;;;;5098656;28;20118;-58
2022/06/06 12:48:54;;;;;;;2.70;1.77;;;;;;;;;;5102631;28;20055;-58
2022/06/06 12:51:39;;;;;;;3.53;1.90;;;;;;;;;;5100554;28;20382;-57
2022/06/06 12:55:26;;;;;;;1.67;1.50;;;;;;;;;;5099805;28;20110;-58
2022/06/06 12:57:42;;;;;;;3.63;1.83;;;;;;;;;;5102123;28;20390;-65
2022/06/06 13:03:52;;;;;;;2.65;1.98;;;;;;;;;;5094543;28;20039;-66
2022/06/06 13:06:48;;;;;;;4.72;2.03;;;;;;;;;;5118128;28;20015;-64
2022/06/06 13:09:43;;;;;;;4.53;1.70;;;;;;;;;;5104861;28;20050;-65
2022/06/06 13:12:58;;;;;;;2.88;1.90;;;;;;;;;;5106123;28;20038;-69
2022/06/06 13:16:03;;;;;;;2.30;1.60;;;;;;;;;;5089200;28;20028;-60
2022/06/06 13:19:12;;;;;;;3.60;1.73;;;;;;;;;;5096914;27;20318;-58
2022/06/06 13:21:59;;;;;;;;;;;;;;;;;;5105653;28;20023;-60
2022/06/06 13:25:00;;;;;;;4.20;1.92;;;;;;;;;;5100271;28;19980;-61
2022/06/06 13:28:00;;;;;;;4.90;2.83;;;;;;;;;;5094042;28;20027;-60
2022/06/06 13:30:45;;;;;;;;;;;;;;;;;;5093516;28;20027;-58
2022/06/06 13:33:31;;;;;;;3.03;2.10;;;;;;;;;;5100325;28;19987;-71
2022/06/06 13:36:35;;;;;;;4.60;1.95;;;;;;;;;;5095738;28;20433;-70
2022/06/06 13:39:33;;;;;;;3.40;2.47;;;;;;;;;;5099436;28;20024;-71
2022/06/06 13:42:31;;;;;;;6.60;2.08;;;;;;;;;;5097397;27;20321;-68
2022/06/06 13:45:34;;;;;;;4.10;1.98;;;;;;;;;;5103083;27;20039;-69
2022/06/06 13:48:20;;;;;;;3.80;1.90;;;;;;;;;;5101054;28;20181;-58
2022/06/06 13:51:20;;;;;;;4.75;1.85;;;;;;;;;;5097339;28;20024;-68
2022/06/06 13:54:24;;;;;;;9.25;1.75;;;;;;;;;;5097527;28;20372;-73
2022/06/06 13:57:27;;;;;;;4.22;2.00;;;;;;;;;;5101811;27;20024;-69
2022/06/06 14:00:19;;;;;;;5.75;1.60;;;;;;;;;;5104652;27;20020;-70
2022/06/06 14:03:11;;;;;;;6.90;2.15;;;;;;;;;;5106981;27;20043;-69
2022/06/06 14:06:21;;;;;;;3.10;1.63;;;;;;;;;;5102631;28;20043;-65
2022/06/06 14:09:06;;;;;;;5.38;2.20;;;;;;;;;;5096940;28;20163;-63
2022/06/06 14:11:58;;;;;;;3.50;1.77;;;;;;;;;;5109842;28;20047;-63
2022/06/06 14:14:43;;;;;;;2.72;1.75;;;;;;;;;;5113290;28;20121;-64
2022/06/06 14:17:30;;;;;;;2.90;1.90;;;;;;;;;;5104931;28;20077;-63
2022/06/06 14:20:18;;;;;;;3.65;2.15;;;;;;;;;;5111862;28;20027;-64
2022/06/06 14:23:22;;;;;;;2.72;1.88;;;;;;;;;;5085614;28;20036;-62
2022/06/06 14:26:11;;;;;;;4.57;2.03;;;;;;;;;;5110701;28;20024;-72
2022/06/06 14:29:14;;;;;;;3.10;2.28;;;;;;;;;;5106925;28;20024;-70
2022/06/06 14:32:02;;;;;;;2.83;1.63;;;;;;;;;;5096520;28;20467;-70
2022/06/06 14:34:49;;;;;;;5.72;1.88;;;;;;;;;;5097309;28;20170;-70
2022/06/06 14:37:35;;;;;;;3.53;1.90;;;;;;;;;;5110391;28;20023;-70
2022/06/06 14:40:39;;;;;;;2.80;1.70;;;;;;;;;;5112260;28;20023;-71
2022/06/06 14:43:25;;;;;;;5.80;2.70;;;;;;;;;;5105122;28;20448;-74
2022/06/06 14:46:11;;;;;;;4.20;2.08;;;;;;;;;;5108815;27;20114;-73
2022/06/06 14:48:59;;;;;;;3.35;1.92;;;;;;;;;;5096700;28;20048;-70
2022/06/06 14:51:47;;;;;;;4.90;2.13;;;;;;;;;;5112114;28;20454;-69
2022/06/06 14:54:33;;;;;;;6.80;2.63;;;;;;;;;;5108145;28;20028;-71
2022/06/06 14:57:18;;;;;;;3.15;1.90;;;;;;;;;;5086015;28;20141;-71
2022/06/06 15:00:09;;;;;;;2.03;1.73;;;;;;;;;;5112327;28;20020;-71
2022/06/06 15:03:02;;;;;;;2.88;1.88;;;;;;;;;;5108502;28;20062;-78
2022/06/06 15:05:47;;;;;;;3.58;2.55;;;;;;;;;;5091982;28;20028;-71
2022/06/06 15:08:35;;;;;;;4.85;2.13;;;;;;;;;;5111194;27;20472;-71
2022/06/06 15:11:24;;;;;;;3.47;1.77;;;;;;;;;;5096234;28;20046;-71
2022/06/06 15:14:12;;;;;;;6.10;2.30;;;;;;;;;;5106114;28;20024;-70
2022/06/06 15:16:58;;;;;;;4.70;2.42;;;;;;;;;;5112551;28;20051;-71
2022/06/06 15:19:49;;;;;;;4.35;2.08;;;;;;;;;;5105875;27;20539;-78
2022/06/06 15:22:37;;;;;;;3.35;1.92;;;;;;;;;;5108560;27;20510;-62
2022/06/06 15:25:26;;;;;;;2.15;1.95;;;;;;;;;;5112756;28;20032;-62
2022/06/06 15:28:17;;;;;;;3.60;1.70;;;;;;;;;;5108170;28;20466;-62
2022/06/06 15:31:11;;;;;;;4.45;2.08;;;;;;;;;;5105976;28;20082;-63
2022/06/06 15:34:06;;;;;;;4.45;1.98;;;;;;;;;;5097937;28;20107;-61
2022/06/06 15:37:05;;;;;;;5.65;2.50;;;;;;;;;;5099847;28;20020;-62
2022/06/06 15:39:53;;;;;;;4.07;2.10;;;;;;;;;;5105110;28;20041;-64
2022/06/06 15:42:45;;;;;;;2.30;1.60;;;;;;;;;;5109890;28;20046;-79
2022/06/06 15:45:30;;;;;;;5.32;2.47;;;;;;;;;;5107205;27;20084;-78
2022/06/06 15:48:26;;;;;;;2.40;2.00;;;;;;;;;;5112714;28;20044;-78
2022/06/06 15:51:31;;;;;;;3.08;2.25;;;;;;;;;;5100716;28;20024;-79
2022/06/06 15:54:16;;;;;;;5.03;1.90;;;;;;;;;;5108431;28;20051;-77
2022/06/06 15:57:08;;;;;;;3.55;2.10;;;;;;;;;;5102756;28;20045;-71
2022/06/06 16:00:01;;;;;;;3.72;2.33;;;;;;;;;;5105008;28;20106;-67
2022/06/06 16:03:05;;;;;;;3.13;1.80;;;;;;;;;;5106601;28;20517;-67
2022/06/06 16:05:52;;;;;;;4.22;2.00;;;;;;;;;;5101652;28;20474;-67
2022/06/06 16:08:38;;;;;;;7.57;2.70;;;;;;;;;;5097415;28;20023;-68
2022/06/06 16:11:24;;;;;;;3.45;2.13;;;;;;;;;;5110679;28;20034;-66
2022/06/06 16:14:21;;;;;;;5.30;2.20;;;;;;;;;;5111466;28;20095;-67
2022/06/06 16:17:12;;;;;;;3.63;2.33;;;;;;;;;;5113679;28;20031;-79
2022/06/06 16:20:04;;;;;;;2.35;1.85;;;;;;;;;;5104946;28;20023;-73
2022/06/06 16:22:54;;;;;;;7.78;1.95;;;;;;;;;;5108297;28;20032;-71
2022/06/06 16:25:47;;;;;;;3.72;2.30;;;;;;;;;;5105485;28;20167;-71
2022/06/06 16:28:36;;;;;;;5.50;2.17;;;;;;;;;;5102142;28;20112;-70
2022/06/06 16:31:36;;;;;;;4.30;2.28;;;;;;;;;;5102053;28;20074;-70
2022/06/06 16:34:25;;;;;;;4.50;2.60;;;;;;;;;;5102604;28;20035;-60
2022/06/06 16:37:13;;;;;;;3.80;2.45;;;;;;;;;;5102547;28;20051;-65
2022/06/06 16:39:58;;;;;;;4.18;2.30;;;;;;;;;;5106935;28;20397;-66
2022/06/06 16:49:35;;;;;;;5.65;2.22;;;;;;;;;;5050846;28;20060;-67
2022/06/06 16:52:30;;;;;;;3.45;1.85;;;;;;;;;;5051151;28;20017;-71
2022/06/06 16:55:18;;;;;;;3.45;2.00;;;;;;;;;;5111801;28;20106;-79
2022/06/06 16:58:42;;;;;;;2.40;1.80;;;;;;;;;;5111020;28;20439;-80
2022/06/06 17:01:44;;;;;;;7.40;1.88;;;;;;;;;;5025819;28;20256;-78
2022/06/06 17:04:40;;;;;;;4.10;2.10;;;;;;;;;;5024242;28;20045;-78
2022/06/06 17:07:48;;;;;;;4.22;2.10;;;;;;;;;;5023907;28;20029;-78
2022/06/06 17:10:34;;;;;;;3.47;2.33;;;;;;;;;;5013795;28;20021;-74
2022/06/06 17:13:32;;;;;;;1.95;1.73;;;;;;;;;;5030257;28;20033;-72
2022/06/06 17:16:29;;;;;;;4.53;1.90;;;;;;;;;;5029461;28;20037;-72
2022/06/06 17:19:14;;;;;;;3.72;1.90;;;;;;;;;;5030315;28;20029;-71
2022/06/06 17:22:01;;;;;;;4.03;2.15;;;;;;;;;;5035483;28;20029;-72
2022/06/06 17:25:24;;;;;;;3.08;2.00;;;;;;;;;;5021463;28;20048;-71
2022/06/06 17:28:23;;;;;;;3.17;1.95;;;;;;;;;;5029025;28;20387;-70
2022/06/06 17:31:08;;;;;;;5.68;2.47;;;;;;;;;;5021559;28;20057;-75
2022/06/06 17:33:54;;;;;;;4.00;2.13;;;;;;;;;;5099067;28;20028;-75
2022/06/06 17:36:41;;;;;;;4.57;2.17;;;;;;;;;;5104478;28;20080;-75
2022/06/06 17:39:39;;;;;;;4.40;1.90;;;;;;;;;;5098153;28;20042;-78
2022/06/06 17:42:24;;;;;;;1.85;1.73;;;;;;;;;;5104131;28;20546;-76
2022/06/06 17:45:31;;;;;;;3.22;1.80;;;;;;;;;;5107827;28;20024;-76
2022/06/06 17:48:32;;;;;;;4.30;2.00;;;;;;;;;;5105070;28;20294;-63
2022/06/06 17:51:24;;;;;;;5.15;1.80;;;;;;;;;;5102799;28;20081;-68